Time;durP1;ratioP1;P1;durP2;ratioP2;P2;SDS_P1;SDS_P2;PMS_P1;PMS_P2;Temp;Humidity;BMP_temperature;BMP_pressure;BME280_temperature;BME280_humidity;BME280_pressure;Samples;Min_cycle;Max_cycle;Signal;HPM_P1;HPM_P2
2022/01/06 00:01:00;;;;;;;5.93;2.57;;;5.40;83.00;;;5.87;56.47;98448.59;4947467;28;123209;-87
2022/01/06 00:03:31;;;;;;;5.13;2.20;;;5.40;83.00;;;5.86;56.16;98452.44;4956894;28;124596;-87
2022/01/06 00:06:39;;;;;;;6.27;2.30;;;5.40;83.00;;;5.88;56.15;98453.78;4955810;28;115383;-86
2022/01/06 00:09:08;;;;;;;7.50;3.20;;;5.40;83.10;;;5.83;56.82;98450.25;4955340;28;115213;-86
2022/01/06 00:25:04;;;;;;;6.67;2.77;;;5.40;83.80;;;5.79;57.01;98455.53;4941097;28;123810;-87
2022/01/06 00:27:33;;;;;;;7.30;2.70;;;5.40;83.80;;;5.78;57.28;98455.78;4954792;28;121461;-86
2022/01/06 00:33:40;;;;;;;6.90;2.67;;;5.40;84.00;;;5.86;57.04;98460.69;4969610;28;113727;-87
2022/01/06 00:36:25;;;;;;;2.03;1.70;;;5.50;84.10;;;5.90;57.49;98461.72;4973206;28;123833;-86
2022/01/06 00:39:11;;;;;;;2.97;2.33;;;5.50;84.20;;;5.91;57.01;98466.91;4973149;28;123845;-86
2022/01/06 00:41:38;;;;;;;4.60;2.00;;;5.50;84.20;;;5.93;57.07;98461.13;4955125;28;113753;-86
2022/01/06 00:44:07;;;;;;;7.07;2.60;;;5.60;84.30;;;5.96;57.79;98461.41;4952437;28;113361;-86
2022/01/06 00:46:35;;;;;;;7.03;2.93;;;5.50;84.30;;;5.95;57.44;98462.50;4964552;28;123981;-86
2022/01/06 00:52:42;;;;;;;3.80;2.07;;;5.50;84.30;;;5.93;56.82;98459.22;4972981;28;114158;-86
2022/01/06 00:55:27;;;;;;;6.03;3.03;;;5.50;84.40;;;5.95;57.01;98458.97;4973947;28;112996;-87
2022/01/06 00:57:55;;;;;;;10.50;2.27;;;5.40;84.50;;;5.92;57.79;98451.28;4955399;28;122509;-86
2022/01/06 01:00:59;;;;;;;11.50;3.30;;;5.50;84.70;;;5.91;57.72;98460.59;4953025;28;123929;-86
2022/01/06 01:04:05;;;;;;;6.80;2.10;;;5.50;84.70;;;5.89;56.94;98458.16;4954753;28;114578;-86
2022/01/06 01:07:09;;;;;;;5.33;2.50;;;5.50;84.70;;;5.90;57.80;98461.72;4947387;28;113917;-86
2022/01/06 01:10:33;;;;;;;5.53;2.73;;;5.50;84.70;;;5.90;57.63;98467.19;4939210;28;122757;-86
2022/01/06 01:13:56;;;;;;;4.23;2.10;;;5.50;84.70;;;5.95;57.55;98469.91;4953051;28;122712;-86
2022/01/06 01:17:24;;;;;;;4.50;2.50;;;5.50;84.80;;;5.95;57.53;98476.22;4932845;28;114247;-86
2022/01/06 01:19:52;;;;;;;6.10;2.50;;;5.50;84.90;;;5.92;57.89;98484.19;4948962;28;114130;-87
2022/01/06 01:22:21;;;;;;;6.00;2.73;;;5.50;84.90;;;5.92;58.33;98482.25;4976366;28;124187;-86
2022/01/06 01:25:45;;;;;;;12.13;3.47;;;5.50;84.90;;;5.93;57.64;98486.66;4951874;28;123706;-86
2022/01/06 01:28:42;;;;;;;8.17;2.63;;;5.50;85.00;;;5.91;57.95;98488.00;4945096;28;113405;-88
2022/01/06 01:31:30;;;;;;;8.27;2.60;;;5.50;84.90;;;5.90;58.55;98489.94;4959082;28;112975;-86
2022/01/06 01:34:35;;;;;;;3.77;2.40;;;5.50;84.90;;;5.94;57.16;98492.97;4978907;28;123220;-86
2022/01/06 01:37:41;;;;;;;6.60;2.60;;;5.50;84.90;;;5.98;57.93;98494.03;4956181;28;122991;-86
2022/01/06 01:40:10;;;;;;;10.50;2.20;;;5.60;85.10;;;5.99;57.80;98501.13;4952543;28;113929;-86
2022/01/06 01:42:40;;;;;;;5.10;2.13;;;5.50;85.00;;;6.01;57.83;98500.84;4943935;28;112358;-85
2022/01/06 01:46:14;;;;;;;3.00;2.30;;;5.60;85.20;;;6.02;57.97;98500.56;4949940;28;122256;-87
2022/01/06 01:49:50;;;;;;;7.20;2.57;;;5.60;85.20;;;6.01;58.11;98498.91;4947619;28;124093;-86
2022/01/06 01:52:08;;;;;;;6.47;3.07;;;5.60;85.30;;;6.00;58.59;98502.78;4954498;28;114524;-86
2022/01/06 01:54:54;;;;;;;3.87;2.43;;;5.60;85.40;;;5.99;58.24;98506.59;4961994;28;114709;-88
2022/01/06 01:57:23;;;;;;;8.10;2.77;;;5.60;85.40;;;5.97;58.54;98506.91;4949346;28;124365;-88
2022/01/06 01:59:52;;;;;;;5.90;2.63;;;5.60;85.50;;;5.96;58.92;98510.78;4941183;28;123585;-87
2022/01/06 02:02:18;;;;;;;5.53;2.37;;;5.60;85.60;;;5.95;58.34;98519.28;4940897;28;114162;-88
2022/01/06 02:04:50;;;;;;;4.17;2.40;;;5.50;85.80;;;5.96;58.32;98518.16;4954318;28;114527;-88
2022/01/06 02:10:59;;;;;;;8.97;3.10;;;5.50;85.90;;;5.91;58.20;98524.50;4954761;28;124344;-88
2022/01/06 02:13:29;;;;;;;8.37;2.47;;;5.50;86.00;;;5.90;58.61;98520.09;4952333;28;114319;-86
2022/01/06 02:16:02;;;;;;;7.27;2.20;;;5.50;86.10;;;5.92;58.61;98528.88;4971380;28;112500;-88
2022/01/06 02:22:10;;;;;;;5.93;2.33;;;5.50;86.40;;;5.85;58.88;98519.34;4946241;28;124395;-87
2022/01/06 02:25:16;;;;;;;6.70;2.57;;;5.50;86.50;;;5.84;59.35;98525.94;4974638;28;112318;-88
2022/01/06 02:28:04;;;;;;;6.77;3.27;;;5.50;86.70;;;5.79;59.13;98528.72;4954480;28;113139;-87
2022/01/06 02:30:54;;;;;;;8.07;2.07;;;5.40;86.70;;;5.75;59.22;98523.00;4982775;28;124203;-86
2022/01/06 02:34:00;;;;;;;8.00;2.57;;;5.40;86.90;;;5.73;59.67;98527.94;4954584;28;122616;-86
2022/01/06 02:36:48;;;;;;;9.40;2.70;;;5.40;87.00;;;5.70;59.93;98525.78;4957657;28;114460;-88
2022/01/06 02:39:15;;;;;;;3.70;2.60;;;5.30;87.00;;;5.66;59.80;98532.94;4954134;28;113935;-86
2022/01/06 02:41:42;;;;;;;4.93;2.13;;;5.30;87.10;;;5.66;60.34;98530.19;4951391;28;122971;-86
2022/01/06 02:44:08;;;;;;;4.40;2.40;;;5.40;87.30;;;5.66;59.53;98530.19;4947970;28;123565;-87
2022/01/06 02:46:39;;;;;;;5.00;2.80;;;5.30;87.40;;;5.67;59.59;98538.16;4950120;28;113708;-86
2022/01/06 02:49:10;;;;;;;4.13;2.07;;;5.30;87.30;;;5.73;59.72;98531.50;4952456;28;114033;-85
2022/01/06 02:51:39;;;;;;;4.50;2.10;;;5.50;87.60;;;5.74;60.20;98533.13;4964238;28;122044;-86
2022/01/06 02:54:05;;;;;;;3.40;2.30;;;5.30;87.40;;;5.76;59.79;98541.09;4949132;28;124365;-88
2022/01/06 02:56:33;;;;;;;8.23;2.67;;;5.30;87.50;;;5.75;60.07;98528.50;4965165;28;115089;-86
2022/01/06 02:59:03;;;;;;;6.47;2.37;;;5.30;87.50;;;5.77;60.20;98534.47;4956017;28;114418;-87
2022/01/06 03:05:31;;;;;;;7.87;2.07;;;5.30;87.50;;;5.82;59.97;98541.84;4953665;28;124622;-86
2022/01/06 03:08:38;;;;;;;3.83;2.30;;;5.40;87.60;;;5.90;60.16;98549.44;4953927;28;113984;-87
2022/01/06 03:11:07;;;;;;;5.37;2.27;;;5.40;87.60;;;5.90;59.67;98553.00;4952699;28;113159;-86
2022/01/06 03:13:35;;;;;;;4.13;2.30;;;5.40;87.60;;;5.90;59.26;98569.47;4974389;28;122313;-86
2022/01/06 03:16:03;;;;;;;4.33;2.00;;;5.40;87.40;;;5.90;59.45;98569.47;4958422;28;124166;-86
2022/01/06 03:18:30;;;;;;;4.50;2.20;;;5.40;87.40;;;5.92;59.38;98567.25;4956590;28;114232;-86
2022/01/06 03:20:56;;;;;;;3.13;2.07;;;5.50;87.40;;;5.97;59.88;98574.66;4960005;28;112988;-86
2022/01/06 03:27:06;;;;;;;3.63;2.00;;;5.50;87.40;;;6.04;59.06;98574.31;4960895;28;123479;-85
2022/01/06 03:34:11;;;;;;;2.33;1.73;;;5.60;87.50;;;6.10;59.29;98584.97;4945827;28;113778;-87
2022/01/06 03:41:28;;;;;;;3.67;2.10;;;5.60;87.20;;;6.00;59.40;98587.78;4955649;28;123514;-87
2022/01/06 03:47:55;;;;;;;4.13;2.23;;;5.60;87.30;;;5.85;59.75;98582.41;4967137;28;114106;-87
2022/01/06 03:50:42;;;;;;;2.30;1.83;;;5.50;87.50;;;5.81;60.01;98593.13;4961703;28;125839;-87
2022/01/06 03:53:10;;;;;;;4.23;2.53;;;5.50;87.80;;;5.77;60.17;98597.53;4938035;28;124436;-87
2022/01/06 03:56:14;;;;;;;4.30;2.13;;;5.40;87.90;;;5.78;60.02;98588.22;4956147;28;113891;-86
2022/01/06 03:59:02;;;;;;;4.30;2.27;;;5.40;88.10;;;5.79;59.83;98578.06;4944182;28;114966;-87
2022/01/06 04:01:31;;;;;;;7.57;2.17;;;5.40;88.10;;;5.81;60.59;98597.78;4953223;28;123249;-87
2022/01/06 04:11:22;;;;;;;4.43;2.10;;;5.40;88.40;;;5.92;60.22;98599.34;4950252;28;113369;-87
2022/01/06 04:14:07;;;;;;;6.90;2.80;;;5.50;88.60;;;5.97;60.58;98605.63;4962231;28;123329;-87
2022/01/06 04:16:39;;;;;;;4.60;2.00;;;5.50;88.60;;;5.96;60.23;98606.75;4953813;28;123028;-86
2022/01/06 04:19:07;;;;;;;3.20;2.20;;;5.50;88.50;;;6.01;60.41;98614.09;4956658;28;114238;-86
2022/01/06 04:22:31;;;;;;;3.10;2.03;;;5.50;88.50;;;6.04;60.28;98608.03;4947425;28;113151;-86
2022/01/06 04:28:40;;;;;;;3.00;2.00;;;5.60;88.60;;;6.05;59.85;98615.16;4962517;28;124445;-86
2022/01/06 04:34:48;;;;;;;7.53;2.40;;;5.60;88.50;;;6.08;60.09;98628.31;4943448;28;114513;-86
2022/01/06 04:38:12;;;;;;;5.43;2.23;;;5.60;88.40;;;6.11;59.86;98619.50;4954618;28;124117;-86
2022/01/06 04:44:20;;;;;;;6.10;2.00;;;5.60;88.30;;;6.06;59.91;98621.47;4957385;28;114511;-87
2022/01/06 04:46:48;;;;;;;3.47;2.10;;;5.60;88.30;;;6.08;60.19;98622.81;4956909;28;114696;-86
2022/01/06 04:49:17;;;;;;;2.73;1.83;;;5.70;88.40;;;6.13;59.94;98630.19;4953117;28;123188;-87
2022/01/06 04:52:03;;;;;;;8.53;2.60;;;5.70;88.40;;;6.18;59.49;98641.94;4951730;28;123030;-86
2022/01/06 04:54:31;;;;;;;6.97;2.10;;;5.70;88.40;;;6.15;59.59;98639.78;4954639;28;114361;-86
2022/01/06 04:57:18;;;;;;;6.43;2.40;;;5.70;88.40;;;6.18;60.23;98647.44;4952593;28;113780;-87
2022/01/06 05:00:05;;;;;;;5.07;3.00;;;5.70;88.40;;;6.16;59.24;98646.06;4947619;28;123172;-86
2022/01/06 05:02:51;;;;;;;3.63;2.10;;;5.70;88.30;;;6.13;59.58;98644.72;4958900;28;123476;-86
2022/01/06 05:12:45;;;;;;;6.07;2.60;;;5.60;88.40;;;6.03;60.14;98647.53;4963889;28;125224;-86
2022/01/06 05:15:14;;;;;;;6.70;2.53;;;5.60;88.40;;;6.04;60.57;98657.41;4949576;28;122685;-85
2022/01/06 05:17:41;;;;;;;3.67;2.07;;;5.60;88.50;;;6.06;60.07;98655.19;4972460;28;113909;-86
2022/01/06 05:20:27;;;;;;;7.07;3.20;;;5.60;88.50;;;6.11;60.29;98662.56;4952604;28;111831;-84
2022/01/06 05:22:56;;;;;;;4.93;2.30;;;5.60;88.50;;;6.08;60.88;98663.97;4961517;28;123264;-87
2022/01/06 05:25:27;;;;;;;2.60;1.60;;;5.60;88.50;;;6.08;60.13;98666.72;4962464;28;124423;-87
2022/01/06 05:27:55;;;;;;;3.30;1.90;;;5.60;88.50;;;6.07;60.93;98664.22;4955333;28;113625;-87
2022/01/06 05:30:40;;;;;;;4.37;2.20;;;5.70;88.60;;;6.10;60.23;98661.75;4959661;28;113806;-86
2022/01/06 05:33:10;;;;;;;5.53;2.27;;;5.60;88.50;;;6.07;60.83;98673.31;4953698;28;124604;-86
2022/01/06 05:35:39;;;;;;;1.80;1.70;;;5.70;88.60;;;6.05;59.86;98670.03;4954801;28;124154;-86
2022/01/06 05:38:43;;;;;;;3.33;2.30;;;5.90;88.90;;;6.04;59.86;98673.03;4951799;28;114157;-87
2022/01/06 05:41:09;;;;;;;3.53;2.33;;;5.60;88.70;;;6.00;60.65;98688.44;4952549;28;114235;-87
2022/01/06 05:43:36;;;;;;;3.47;2.10;;;6.60;89.60;;;5.98;60.14;98678.56;4950108;28;124120;-86
2022/01/06 05:46:03;;;;;;;10.33;2.40;;;5.60;88.80;;;5.99;60.53;98671.16;4951244;28;122954;-87
2022/01/06 05:48:30;;;;;;;3.00;2.10;;;5.60;88.80;;;5.99;60.39;98682.13;4956247;28;114052;-86
2022/01/06 05:50:58;;;;;;;2.83;2.10;;;5.60;88.80;;;6.00;60.39;98689.25;4926197;28;113399;-87
2022/01/06 05:53:28;;;;;;;3.37;2.40;;;5.60;88.90;;;5.99;60.25;98687.59;4951397;28;123717;-86
2022/01/06 05:55:55;;;;;;;2.40;2.17;;;5.50;88.90;;;5.96;60.53;98688.16;4950572;28;123578;-87
2022/01/06 05:58:41;;;;;;;5.27;2.40;;;5.50;88.90;;;5.98;60.72;98695.00;4940680;28;114316;-87
2022/01/06 06:01:08;;;;;;;3.00;2.30;;;5.60;89.00;;;5.95;61.01;98703.00;4965738;28;113650;-88
2022/01/06 06:03:36;;;;;;;3.10;1.93;;;6.50;89.80;;;5.92;60.73;98687.91;4949421;28;124359;-86
2022/01/06 06:06:03;;;;;;;3.80;2.00;;;5.50;89.00;;;5.95;60.61;98700.25;4946987;28;122868;-87
2022/01/06 06:08:30;;;;;;;8.80;2.40;;;5.50;89.00;;;5.97;60.85;98695.31;4942795;28;113944;-87
2022/01/06 06:10:57;;;;;;;3.63;2.40;;;5.70;89.20;;;6.00;60.83;98697.47;4946976;28;113664;-87
2022/01/06 06:13:23;;;;;;;2.43;1.90;;;5.60;89.20;;;6.05;60.21;98702.94;4944714;28;123243;-88
2022/01/06 06:15:51;;;;;;;2.60;1.87;;;5.60;89.10;;;6.05;60.68;98697.44;4950228;28;123529;-86
2022/01/06 06:18:19;;;;;;;3.70;2.20;;;5.60;89.10;;;6.09;60.79;98703.97;4949332;28;113842;-86
2022/01/06 06:20:46;;;;;;;7.13;2.43;;;5.60;89.20;;;6.13;60.43;98702.31;4947133;28;114059;-86
2022/01/06 06:23:52;;;;;;;6.33;2.73;;;5.60;89.10;;;6.16;60.57;98704.50;4947268;28;123911;-87
2022/01/06 06:26:19;;;;;;;7.40;2.53;;;5.60;89.10;;;6.13;60.87;98709.75;4943546;28;122741;-87
2022/01/06 06:28:46;;;;;;;5.00;2.13;;;5.60;88.90;;;6.13;60.24;98707.00;4949449;28;116589;-87
2022/01/06 06:31:14;;;;;;;4.63;1.90;;;5.60;88.90;;;6.13;60.38;98716.03;4949855;28;113744;-87
2022/01/06 06:34:19;;;;;;;5.20;2.27;;;5.70;89.00;;;6.16;60.78;98720.13;4946711;28;124125;-87
2022/01/06 06:36:46;;;;;;;5.63;2.13;;;5.70;88.90;;;6.12;60.12;98728.09;4947749;28;122749;-87
2022/01/06 06:39:13;;;;;;;4.90;2.07;;;5.60;88.70;;;6.14;60.54;98731.38;4945800;28;115163;-87
2022/01/06 06:41:40;;;;;;;4.27;2.20;;;5.70;88.80;;;6.16;60.81;98733.84;4945034;28;115033;-87
2022/01/06 06:44:06;;;;;;;4.83;2.17;;;5.70;88.80;;;6.15;60.00;98749.50;4942643;28;124384;-88
2022/01/06 06:46:33;;;;;;;3.57;2.23;;;5.70;88.70;;;6.16;59.84;98750.31;4950674;28;122184;-87
2022/01/06 06:49:19;;;;;;;3.63;2.20;;;5.70;88.70;;;6.16;60.17;98753.88;4949788;28;114540;-86
2022/01/06 06:51:49;;;;;;;9.07;3.30;;;5.70;88.60;;;6.10;60.28;98746.78;4951355;28;112640;-86
2022/01/06 06:54:15;;;;;;;8.07;2.47;;;6.30;89.20;;;6.06;59.92;98753.94;4938754;28;122588;-84
2022/01/06 06:56:43;;;;;;;4.63;2.93;;;5.60;88.40;;;6.04;60.03;98764.34;4950172;28;123615;-86
2022/01/06 06:59:10;;;;;;;6.00;2.23;;;5.60;88.50;;;6.03;60.18;98756.44;4950388;28;114786;-88
2022/01/06 07:01:36;;;;;;;6.60;2.50;;;5.60;88.50;;;6.03;59.94;98759.97;4946599;28;113789;-85
2022/01/06 07:04:03;;;;;;;6.90;2.87;;;5.60;88.50;;;6.04;60.38;98758.06;4943943;28;123204;-85
2022/01/06 07:06:29;;;;;;;5.30;2.30;;;5.60;88.50;;;6.03;59.67;98759.16;4949031;28;124225;-87
2022/01/06 07:08:56;;;;;;;3.20;2.13;;;5.90;88.80;;;6.03;60.48;98762.72;4955522;28;114031;-88
2022/01/06 07:11:23;;;;;;;4.27;2.50;;;5.60;88.50;;;6.03;60.42;98775.63;4952431;28;114339;-85
2022/01/06 07:13:50;;;;;;;8.83;2.67;;;5.60;88.60;;;6.01;60.11;98772.34;4950129;28;124060;-85
2022/01/06 07:16:16;;;;;;;12.00;2.47;;;5.60;88.60;;;6.01;60.82;98773.16;4959655;28;123783;-86
2022/01/06 07:18:43;;;;;;;9.10;2.67;;;5.60;88.70;;;5.99;59.93;98775.34;4951145;28;114293;-85
2022/01/06 07:21:10;;;;;;;5.23;2.30;;;5.60;88.70;;;5.99;60.19;98789.06;4954239;28;114029;-85
2022/01/06 07:23:56;;;;;;;7.57;2.87;;;5.60;88.70;;;5.99;60.56;98789.06;4952719;28;123855;-86
2022/01/06 07:27:00;;;;;;;5.67;2.80;;;5.60;88.70;;;5.98;60.88;98784.69;4954678;28;122711;-86
2022/01/06 07:29:28;;;;;;;5.03;2.33;;;5.60;88.70;;;5.97;60.52;98783.88;4944074;28;115006;-86
2022/01/06 07:31:56;;;;;;;5.60;2.57;;;5.60;88.80;;;5.97;60.46;98783.88;4948790;28;115105;-75
2022/01/06 07:34:22;;;;;;;3.47;2.50;;;5.60;88.80;;;6.00;60.31;98787.16;4959120;28;123831;-75
2022/01/06 07:37:09;;;;;;;5.43;2.50;;;5.60;89.00;;;6.06;60.50;98784.09;4957417;28;123733;-74
2022/01/06 07:39:36;;;;;;;7.57;2.90;;;5.60;89.20;;;6.11;60.90;98794.22;4913570;28;113335;-75
2022/01/06 07:42:05;;;;;;;12.63;2.57;;;5.60;89.10;;;6.12;60.97;98799.41;4920537;28;115811;-75
2022/01/06 07:44:31;;;;;;;12.77;3.00;;;5.60;89.10;;;6.12;61.16;98795.84;4916996;28;123597;-75
2022/01/06 07:46:59;;;;;;;7.37;2.80;;;5.70;89.00;;;6.12;60.07;98802.16;4912022;28;123648;-74
2022/01/06 07:49:27;;;;;;;4.43;2.60;;;5.70;88.90;;;6.11;60.46;98814.25;4920505;28;114300;-75
2022/01/06 07:51:54;;;;;;;11.00;2.80;;;5.70;88.70;;;6.09;59.99;98804.66;4904398;28;113897;-75
2022/01/06 07:54:21;;;;;;;5.17;2.50;;;5.70;88.70;;;6.11;60.47;98811.50;4915240;28;123184;-75
2022/01/06 07:56:50;;;;;;;2.80;2.20;;;5.70;88.80;;;6.15;60.25;98818.06;4906632;28;124360;-75
2022/01/06 07:59:16;;;;;;;7.10;2.73;;;5.70;88.90;;;6.18;60.42;98823.00;4925881;28;114571;-76
2022/01/06 08:01:43;;;;;;;4.13;2.43;;;5.70;88.80;;;6.19;59.38;98818.31;4913943;28;112831;-75
2022/01/06 08:04:28;;;;;;;7.07;2.33;;;5.70;88.70;;;6.52;59.58;98821.41;4920441;28;123955;-87
2022/01/06 08:06:54;;;;;;;6.70;2.70;;;5.90;88.40;;;6.40;59.16;98819.84;4913700;28;123785;-87
2022/01/06 08:09:21;;;;;;;5.03;2.40;;;6.00;88.20;;;6.35;59.70;98822.59;4900749;28;113326;-86
2022/01/06 08:11:48;;;;;;;6.70;2.37;;;5.90;88.20;;;6.32;59.91;98833.34;4914699;28;113157;-86
2022/01/06 08:14:15;;;;;;;3.90;2.13;;;5.90;88.20;;;6.32;59.30;98827.84;4917601;28;124792;-86
2022/01/06 08:16:42;;;;;;;5.83;2.30;;;5.90;88.30;;;6.31;59.83;98843.47;4928757;28;124394;-86
2022/01/06 08:19:08;;;;;;;7.70;2.70;;;6.00;88.30;;;6.33;59.73;98834.97;4950509;28;115399;-86
2022/01/06 08:21:35;;;;;;;4.60;2.40;;;5.90;88.10;;;6.30;59.68;98841.03;4955091;28;114904;-86
2022/01/06 08:24:03;;;;;;;6.67;2.43;;;5.80;87.90;;;6.28;59.42;98837.75;4953215;28;124028;-86
2022/01/06 08:26:30;;;;;;;4.60;2.10;;;5.80;88.00;;;6.28;59.82;98838.56;4954116;28;123294;-84
2022/01/06 08:28:57;;;;;;;5.43;2.50;;;5.80;88.00;;;6.26;59.51;98850.91;4950656;28;113067;-87
2022/01/06 08:31:25;;;;;;;6.23;3.13;;;5.80;87.90;;;6.21;59.28;98843.56;4950609;28;113863;-86
2022/01/06 08:33:52;;;;;;;5.80;2.73;;;5.80;87.90;;;6.18;59.61;98844.13;4941101;28;123160;-88
2022/01/06 08:36:19;;;;;;;6.47;2.37;;;5.80;87.90;;;6.17;59.88;98854.25;4952043;28;123091;-86
2022/01/06 08:38:45;;;;;;;5.50;2.60;;;5.70;87.80;;;6.18;59.46;98849.59;4950521;28;113744;-82
2022/01/06 08:41:12;;;;;;;5.67;2.50;;;5.90;88.30;;;6.22;59.56;98847.09;4947939;28;113288;-87
2022/01/06 08:43:38;;;;;;;7.23;2.40;;;5.80;88.40;;;6.25;60.17;98850.09;4953299;28;123225;-86
2022/01/06 08:46:05;;;;;;;4.60;2.77;;;5.80;88.40;;;6.26;59.47;98857.25;4954570;28;123144;-86
2022/01/06 08:48:31;;;;;;;6.20;2.57;;;5.80;88.30;;;6.28;59.43;98859.69;4948246;28;113454;-87
2022/01/06 08:50:58;;;;;;;7.20;2.70;;;5.80;88.20;;;6.31;59.23;98862.69;4949004;28;114208;-87
2022/01/06 08:53:25;;;;;;;4.17;2.60;;;5.80;88.20;;;6.34;59.33;98864.03;4953809;28;124196;-86
2022/01/06 08:55:54;;;;;;;5.33;2.57;;;5.90;88.20;;;6.32;59.29;98861.59;4969272;28;122587;-86
2022/01/06 08:58:20;;;;;;;9.43;2.70;;;5.80;88.00;;;6.31;59.26;98861.88;4948142;28;114638;-86
2022/01/06 09:00:49;;;;;;;10.50;3.10;;;5.80;87.90;;;6.28;59.30;98865.19;4940776;28;113435;-87
2022/01/06 09:03:16;;;;;;;5.23;2.90;;;5.80;87.90;;;6.24;59.42;98875.09;4953244;28;124756;-83
2022/01/06 09:05:42;;;;;;;12.63;3.77;;;5.80;87.90;;;6.19;59.59;98879.47;4946586;28;123519;-85
2022/01/06 09:08:09;;;;;;;6.17;3.70;;;6.30;88.40;;;6.17;59.42;98878.94;4951031;28;114662;-86
2022/01/06 09:10:38;;;;;;;11.90;2.97;;;5.80;88.10;;;6.20;59.80;98880.31;4949266;28;114840;-84
2022/01/06 09:13:06;;;;;;;4.40;2.63;;;5.80;88.10;;;6.22;59.56;98882.78;4959102;28;123761;-87
2022/01/06 09:15:33;;;;;;;6.70;2.77;;;5.80;88.10;;;6.19;59.68;98884.97;4950062;28;123746;-88
2022/01/06 09:17:59;;;;;;;6.50;3.40;;;5.70;88.00;;;6.20;59.75;98886.59;4941334;28;112433;-86
2022/01/06 09:20:29;;;;;;;8.00;2.77;;;5.80;88.20;;;6.18;59.75;98894.31;4952101;28;113102;-86
2022/01/06 09:22:55;;;;;;;3.37;2.50;;;5.80;88.10;;;6.16;59.85;98885.53;4948472;28;123587;-88
2022/01/06 09:25:31;;;;;;;6.57;3.40;;;5.80;88.10;;;6.19;59.58;98895.94;4958304;28;122898;-85
2022/01/06 09:27:58;;;;;;;6.90;3.00;;;5.80;88.10;;;6.18;59.38;98894.31;4958061;28;111716;-87
2022/01/06 09:30:25;;;;;;;6.23;2.90;;;5.80;88.00;;;6.20;60.20;98905.81;4953753;28;113730;-86
2022/01/06 09:32:55;;;;;;;8.40;2.90;;;6.10;88.30;;;6.23;59.79;98903.59;4950748;28;123270;-87
2022/01/06 09:35:40;;;;;;;4.70;2.70;;;5.80;88.10;;;6.26;59.73;98916.75;4953001;28;123880;-88
2022/01/06 09:38:09;;;;;;;6.40;3.07;;;5.80;88.00;;;6.25;59.73;98912.38;4942222;28;114172;-86
2022/01/06 09:40:35;;;;;;;9.50;3.07;;;5.80;88.10;;;6.28;59.48;98909.06;4936349;28;112460;-86
2022/01/06 09:43:03;;;;;;;9.17;3.00;;;5.80;88.10;;;6.33;59.80;98914.53;4951678;28;124853;-86
2022/01/06 09:45:35;;;;;;;6.43;3.37;;;5.80;88.10;;;6.37;59.84;98912.88;4948256;28;122891;-87
2022/01/06 09:48:04;;;;;;;6.70;2.90;;;5.90;88.00;;;6.37;59.26;98915.63;4951043;28;115800;-87
2022/01/06 09:50:31;;;;;;;8.43;2.60;;;5.90;88.00;;;6.39;59.33;98917.00;4960735;28;113223;-86
2022/01/06 09:53:00;;;;;;;5.43;2.50;;;5.90;87.90;;;6.45;59.36;98917.78;4948662;28;123987;-88
2022/01/06 09:55:27;;;;;;;8.73;2.63;;;6.00;87.90;;;6.50;59.18;98926.00;4949687;28;122938;-87
2022/01/06 09:58:00;;;;;;;6.37;2.50;;;6.00;87.80;;;6.60;58.95;98927.84;4949594;28;115231;-87
2022/01/06 10:00:29;;;;;;;5.80;2.33;;;6.30;88.10;;;6.63;59.04;98925.34;4956186;28;113945;-87
2022/01/06 10:03:02;;;;;;;3.23;2.17;;;6.10;87.60;;;6.66;58.69;98925.88;4948150;28;123178;-87
2022/01/06 10:06:09;;;;;;;4.37;2.43;;;6.10;87.40;;;6.66;58.73;98920.41;4932658;28;122767;-88
2022/01/06 10:08:38;;;;;;;7.63;3.00;;;6.20;87.90;;;6.64;58.80;98937.16;4956868;28;113270;-89
2022/01/06 10:11:14;;;;;;;7.30;3.03;;;6.20;87.20;;;6.67;58.03;98930.28;4967278;28;113770;-87
2022/01/06 10:13:46;;;;;;;5.27;2.30;;;6.20;87.20;;;6.71;58.64;98928.59;4940158;28;124204;-87
2022/01/06 10:16:16;;;;;;;8.20;2.80;;;6.30;87.30;;;6.75;58.67;98936.00;4961177;28;123796;-87
2022/01/06 10:19:00;;;;;;;4.83;2.33;;;6.20;87.00;;;6.77;58.30;98932.97;4949069;28;114252;-87
2022/01/06 10:21:39;;;;;;;5.30;2.40;;;6.30;87.00;;;6.77;58.58;98922.81;4946861;28;114285;-87
2022/01/06 10:24:11;;;;;;;6.50;2.70;;;6.30;86.90;;;6.75;58.07;98936.00;4962010;28;122218;-88
2022/01/06 10:27:06;;;;;;;6.07;2.60;;;6.30;86.70;;;6.76;58.17;98939.56;4950500;28;122253;-87
2022/01/06 10:29:36;;;;;;;6.90;2.70;;;6.30;86.70;;;6.76;58.54;98934.06;4951057;28;113359;-87
2022/01/06 10:32:15;;;;;;;6.90;3.20;;;6.30;86.70;;;6.81;57.93;98931.28;4949379;28;113062;-87
2022/01/06 10:34:49;;;;;;;7.90;3.23;;;6.30;86.50;;;6.84;58.10;98938.97;4949590;28;124121;-82
2022/01/06 10:37:25;;;;;;;3.97;2.10;;;6.40;86.70;;;6.86;57.79;98932.09;4946924;28;122622;-87
2022/01/06 10:39:57;;;;;;;4.37;2.40;;;6.40;86.50;;;6.88;57.84;98937.31;4947617;28;114674;-88
2022/01/06 10:42:27;;;;;;;4.53;2.00;;;6.40;86.40;;;6.89;57.74;98938.13;4948010;28;113572;-86
2022/01/06 10:45:04;;;;;;;5.57;2.37;;;6.40;86.20;;;6.89;57.32;98925.19;4945136;28;123966;-88
2022/01/06 10:47:35;;;;;;;5.97;2.17;;;6.40;86.30;;;6.90;57.62;98932.31;4948295;28;122178;-87
2022/01/06 10:50:08;;;;;;;4.70;2.30;;;6.40;86.10;;;6.95;57.73;98936.97;4946841;28;115960;-87
2022/01/06 10:52:38;;;;;;;4.30;2.63;;;6.50;86.20;;;6.99;57.03;98940.81;4942787;28;115883;-87
2022/01/06 10:55:29;;;;;;;5.13;2.37;;;6.50;86.10;;;7.02;57.38;98941.03;4969541;28;123199;-87
2022/01/06 10:58:12;;;;;;;8.53;2.63;;;5.10;84.60;;;7.07;57.03;98948.44;4931162;28;124179;-76
2022/01/06 11:00:45;;;;;;;5.60;2.60;;;6.60;86.30;;;7.17;57.57;98947.53;4942850;28;114200;-86
2022/01/06 11:03:24;;;;;;;5.73;2.23;;;6.60;86.70;;;7.26;57.02;98945.81;4969320;28;113860;-87
2022/01/06 11:05:54;;;;;;;4.70;2.30;;;6.60;86.40;;;7.28;56.68;98954.56;4948080;28;123836;-87
2022/01/06 11:08:27;;;;;;;11.23;2.83;;;6.70;85.70;;;7.28;56.86;98946.31;4944358;28;123789;-87
2022/01/06 11:13:44;;;;;;;6.27;2.40;;;6.70;85.10;;;7.20;56.68;98956.03;4949892;28;112548;-89
2022/01/06 11:16:15;;;;;;;9.50;2.93;;;6.70;84.70;;;7.21;56.55;98948.59;4949646;28;124256;-86
2022/01/06 11:18:52;;;;;;;4.27;2.60;;;6.70;84.90;;;7.25;55.98;98957.91;4939921;28;123792;-88
2022/01/06 11:21:34;;;;;;;7.37;2.60;;;7.20;85.20;;;7.26;55.88;98957.63;4950429;28;113494;-87
2022/01/06 11:24:20;;;;;;;6.43;2.47;;;6.70;85.10;;;7.33;55.69;98956.47;4979586;28;114061;-85
2022/01/06 11:27:08;;;;;;;6.63;2.30;;;6.80;84.30;;;7.33;55.26;98961.97;4948118;28;124039;-87
2022/01/06 11:29:39;;;;;;;5.20;2.50;;;6.80;83.90;;;7.30;55.49;98955.13;4947124;28;125967;-88
2022/01/06 11:32:19;;;;;;;5.33;2.30;;;6.80;84.00;;;7.28;55.33;98955.41;4941498;28;114626;-88
2022/01/06 11:34:50;;;;;;;4.70;2.30;;;6.90;84.20;;;7.27;55.27;98961.19;4949434;28;114073;-88
2022/01/06 11:37:16;;;;;;;6.67;2.33;;;6.80;83.60;;;7.27;55.25;98958.44;4951372;28;123978;-87
2022/01/06 11:39:44;;;;;;;6.93;2.50;;;6.80;83.40;;;7.25;55.37;98955.16;4934586;28;123066;-88
2022/01/06 11:42:22;;;;;;;6.90;2.23;;;6.80;83.40;;;7.26;55.43;98963.13;4951999;28;113328;-88
2022/01/06 11:44:55;;;;;;;8.60;2.23;;;6.80;83.50;;;7.30;55.39;98960.59;4948253;28;114311;-86
2022/01/06 11:47:38;;;;;;;3.70;2.20;;;6.80;83.60;;;7.34;55.49;98947.13;4952060;28;123193;-86
2022/01/06 11:50:19;;;;;;;5.17;2.30;;;6.80;83.70;;;7.38;55.26;98953.69;4950106;28;123660;-86
2022/01/06 11:53:01;;;;;;;6.20;2.50;;;6.90;83.80;;;7.40;55.40;98956.97;4946573;28;114278;-87
2022/01/06 11:55:40;;;;;;;10.70;2.43;;;7.00;83.70;;;7.41;54.93;98953.09;4968614;28;113209;-85
2022/01/06 11:58:17;;;;;;;5.17;2.03;;;6.90;83.10;;;7.45;54.58;98959.69;4929385;28;123090;-84
2022/01/06 12:01:14;;;;;;;10.83;2.47;;;7.00;83.00;;;7.48;54.50;98954.41;4946540;28;123384;-87
2022/01/06 12:03:47;;;;;;;4.67;2.07;;;7.00;82.80;;;7.52;54.49;98952.75;4931572;28;113563;-87
2022/01/06 12:06:33;;;;;;;4.37;1.90;;;7.00;83.00;;;7.59;54.33;98955.13;4936362;28;113989;-86
2022/01/06 12:09:02;;;;;;;10.40;2.90;;;7.10;83.10;;;7.67;54.54;98950.94;4949120;28;124109;-88
2022/01/06 12:11:33;;;;;;;5.13;2.07;;;7.10;83.10;;;7.78;54.14;98938.72;4950852;28;123881;-87
2022/01/06 12:14:02;;;;;;;4.90;2.67;;;7.20;83.20;;;7.91;54.06;98943.56;4944134;28;114259;-88
2022/01/06 12:16:43;;;;;;;5.27;2.13;;;7.30;82.70;;;8.01;54.04;98941.81;4948895;28;113221;-87